Time;durP1;ratioP1;P1;durP2;ratioP2;P2;SDS_P1;SDS_P2;PMS_P1;PMS_P2;Temp;Humidity;BMP_temperature;BMP_pressure;BME280_temperature;BME280_humidity;BME280_pressure;Samples;Min_cycle;Max_cycle;Signal;HPM_P1;HPM_P2
2020/12/14 00:00:42;;;;;;;8.13;2.78;;;6.80;95.00;;;;;;5056875;28;20103;-77
2020/12/14 00:03:08;;;;;;;10.23;3.65;;;6.80;94.90;;;;;;5074953;28;20023;-78
2020/12/14 00:05:33;;;;;;;8.52;2.83;;;6.90;94.90;;;;;;5056653;28;20146;-78
2020/12/14 00:07:59;;;;;;;5.72;2.08;;;6.90;94.90;;;;;;5074638;28;20028;-78
2020/12/14 00:10:24;;;;;;;7.95;2.17;;;6.90;94.90;;;;;;5056732;28;20025;-78
2020/12/14 00:12:50;;;;;;;10.60;2.75;;;6.90;94.90;;;;;;5073743;28;20027;-78
2020/12/14 00:15:15;;;;;;;7.18;2.35;;;6.90;94.80;;;;;;5059471;28;20027;-78
2020/12/14 00:17:41;;;;;;;8.63;2.65;;;7.00;94.70;;;;;;5056489;28;20012;-78
2020/12/14 00:20:06;;;;;;;8.48;2.50;;;7.00;94.60;;;;;;5056612;28;20054;-78
2020/12/14 00:22:33;;;;;;;8.50;2.22;;;7.00;94.50;;;;;;5074435;28;20031;-78
2020/12/14 00:25:00;;;;;;;8.07;3.10;;;7.00;94.50;;;;;;5056359;28;20028;-78
2020/12/14 00:27:25;;;;;;;12.30;3.15;;;7.00;94.40;;;;;;5056394;28;20016;-77
2020/12/14 00:29:51;;;;;;;10.35;2.45;;;7.00;94.50;;;;;;5056209;28;20373;-77
2020/12/14 00:32:17;;;;;;;10.23;3.33;;;7.00;94.50;;;;;;5056301;28;20023;-78
2020/12/14 00:34:42;;;;;;;7.18;2.25;;;7.00;94.40;;;;;;5078909;28;20016;-78
2020/12/14 00:37:08;;;;;;;8.63;2.40;;;7.00;94.20;;;;;;5060254;28;20475;-77
2020/12/14 00:39:34;;;;;;;14.45;2.75;;;7.00;94.20;;;;;;5078471;28;20017;-78
2020/12/14 00:42:00;;;;;;;9.90;2.72;;;7.10;94.20;;;;;;5055907;28;20155;-78
2020/12/14 00:44:25;;;;;;;7.10;2.17;;;7.10;94.10;;;;;;5055995;28;20103;-78
2020/12/14 00:46:51;;;;;;;9.80;2.15;;;7.10;94.00;;;;;;5074044;28;20028;-78
2020/12/14 00:49:16;;;;;;;9.38;1.92;;;7.10;94.10;;;;;;5055938;28;20074;-77
2020/12/14 00:51:42;;;;;;;6.75;2.08;;;7.10;94.30;;;;;;5058703;28;20031;-77
2020/12/14 00:54:08;;;;;;;6.30;1.98;;;7.10;94.20;;;;;;5073649;28;20021;-78
2020/12/14 00:56:34;;;;;;;8.57;2.67;;;7.10;94.40;;;;;;5055874;28;20028;-77
2020/12/14 00:59:00;;;;;;;9.05;2.30;;;7.10;94.40;;;;;;5073559;28;20024;-78
2020/12/14 01:01:25;;;;;;;7.85;2.28;;;7.10;94.50;;;;;;5055826;28;20447;-78
2020/12/14 01:03:51;;;;;;;8.23;1.95;;;7.10;94.50;;;;;;5055799;28;20449;-77
2020/12/14 01:06:16;;;;;;;11.60;2.53;;;7.20;94.60;;;;;;5085221;28;20025;-77
2020/12/14 01:08:42;;;;;;;6.80;1.90;;;7.20;94.70;;;;;;5073317;28;20028;-78
2020/12/14 01:11:08;;;;;;;10.07;2.30;;;7.20;94.70;;;;;;5073478;28;20099;-78
2020/12/14 01:13:33;;;;;;;6.55;1.77;;;7.20;94.80;;;;;;5055353;28;20021;-78
2020/12/14 01:15:59;;;;;;;8.05;1.73;;;7.20;94.60;;;;;;5055537;28;20422;-78
2020/12/14 01:18:25;;;;;;;4.07;1.63;;;7.20;94.50;;;;;;5073280;28;20017;-78
2020/12/14 01:20:50;;;;;;;6.10;2.10;;;7.20;94.60;;;;;;5073376;28;20070;-77
2020/12/14 01:23:17;;;;;;;8.40;2.10;;;7.20;94.40;;;;;;5054214;28;20103;-78
2020/12/14 01:25:43;;;;;;;6.85;1.90;;;7.30;94.50;;;;;;5055356;28;20021;-78
2020/12/14 01:28:10;;;;;;;8.52;2.10;;;7.30;94.40;;;;;;5073125;28;20031;-78
2020/12/14 01:30:36;;;;;;;7.15;1.98;;;7.30;94.50;;;;;;5055129;28;20118;-78
2020/12/14 01:33:02;;;;;;;5.72;1.63;;;7.30;94.40;;;;;;5072834;28;20100;-78
2020/12/14 01:35:28;;;;;;;5.53;1.88;;;7.30;94.50;;;;;;5075008;28;20016;-78
2020/12/14 01:37:54;;;;;;;4.68;1.80;;;7.30;94.60;;;;;;5072929;28;20067;-78
2020/12/14 01:40:20;;;;;;;5.88;1.85;;;7.30;94.50;;;;;;5055033;28;20025;-78
2020/12/14 01:42:48;;;;;;;4.47;1.40;;;7.30;94.60;;;;;;5054997;28;20108;-78
2020/12/14 01:45:17;;;;;;;5.05;1.67;;;7.30;94.50;;;;;;5072659;28;20017;-78
2020/12/14 01:47:46;;;;;;;4.73;2.23;;;7.40;94.50;;;;;;5054642;28;20016;-78
2020/12/14 01:50:13;;;;;;;3.67;1.53;;;7.40;94.30;;;;;;5072755;28;20540;-78
2020/12/14 01:52:41;;;;;;;8.10;1.60;;;7.40;94.30;;;;;;5054604;28;20346;-78
2020/12/14 01:55:09;;;;;;;8.88;1.63;;;7.50;94.30;;;;;;5054760;28;20016;-77
2020/12/14 01:57:37;;;;;;;8.30;2.17;;;7.50;94.20;;;;;;5072496;28;20016;-78
2020/12/14 02:00:09;;;;;;;6.30;1.50;;;7.50;94.20;;;;;;5072498;28;20021;-78
2020/12/14 02:02:35;;;;;;;5.65;1.40;;;7.60;94.20;;;;;;5072517;28;20012;-78
2020/12/14 02:05:02;;;;;;;5.88;1.40;;;7.60;94.20;;;;;;5072432;28;20016;-78
2020/12/14 02:07:28;;;;;;;7.63;2.15;;;7.60;94.20;;;;;;5054682;28;20013;-78
2020/12/14 02:09:54;;;;;;;6.88;1.50;;;7.60;94.30;;;;;;5056584;28;20115;-78
2020/12/14 02:12:24;;;;;;;6.10;1.45;;;7.60;94.20;;;;;;5085503;28;20035;-78
2020/12/14 02:14:57;;;;;;;6.05;1.60;;;7.60;94.30;;;;;;5054402;28;20077;-78
2020/12/14 02:17:25;;;;;;;4.57;1.25;;;7.70;94.20;;;;;;5072182;28;20020;-78
2020/12/14 02:19:52;;;;;;;3.17;1.02;;;7.70;94.30;;;;;;5054329;28;20028;-78
2020/12/14 02:22:23;;;;;;;5.30;1.42;;;7.70;94.40;;;;;;5054346;28;20099;-78
2020/12/14 02:24:52;;;;;;;6.93;1.27;;;7.70;94.20;;;;;;5072170;28;20016;-78
2020/12/14 02:27:18;;;;;;;;;;;7.80;94.20;;;;;;5072679;28;20043;-78
2020/12/14 02:29:43;;;;;;;5.72;1.38;;;7.70;94.30;;;;;;5057370;28;20344;-78
2020/12/14 02:32:12;;;;;;;6.30;1.00;;;7.70;94.30;;;;;;5074191;28;20043;-78
2020/12/14 02:34:39;;;;;;;6.03;1.42;;;7.80;94.30;;;;;;5073837;28;20522;-78
2020/12/14 02:37:07;;;;;;;6.90;1.50;;;7.80;94.30;;;;;;5071995;28;20017;-78
2020/12/14 02:39:37;;;;;;;2.45;0.90;;;7.80;94.30;;;;;;5054131;28;20024;-78
2020/12/14 02:42:06;;;;;;;4.78;1.17;;;7.80;94.50;;;;;;5066860;28;20025;-78
2020/12/14 02:44:32;;;;;;;5.25;1.58;;;7.70;94.80;;;;;;5073971;28;20456;-78
2020/12/14 02:46:57;;;;;;;5.45;1.58;;;7.50;95.60;;;;;;5053272;28;20031;-78
2020/12/14 02:49:23;;;;;;;7.85;1.85;;;7.40;96.40;;;;;;5082537;28;20528;-78
2020/12/14 02:51:48;;;;;;;5.90;2.50;;;7.30;97.20;;;;;;5053596;28;20511;-78
2020/12/14 02:54:14;;;;;;;8.10;1.80;;;7.20;97.60;;;;;;5053180;28;20025;-78
2020/12/14 02:56:43;;;;;;;4.57;1.38;;;7.20;97.80;;;;;;5053160;28;20476;-79
2020/12/14 02:59:11;;;;;;;6.07;2.10;;;7.20;97.80;;;;;;5053132;28;20388;-79
2020/12/14 03:01:37;;;;;;;6.82;2.10;;;7.20;97.90;;;;;;5053756;28;20263;-79
2020/12/14 03:04:03;;;;;;;6.88;2.00;;;7.20;97.90;;;;;;5071728;28;20031;-78
2020/12/14 03:06:28;;;;;;;2.60;1.65;;;7.20;97.90;;;;;;5071984;28;20056;-79
2020/12/14 03:08:54;;;;;;;7.40;2.60;;;7.30;98.10;;;;;;5074557;28;20059;-78
2020/12/14 03:11:19;;;;;;;4.00;1.88;;;7.30;98.50;;;;;;5071950;28;20422;-78
2020/12/14 03:13:45;;;;;;;4.88;1.65;;;7.20;98.80;;;;;;5071581;28;20017;-79
2020/12/14 03:16:10;;;;;;;8.57;2.28;;;7.30;99.40;;;;;;5053417;28;20021;-79
2020/12/14 03:18:36;;;;;;;8.05;1.65;;;7.30;99.60;;;;;;5053763;28;20020;-79
2020/12/14 03:21:08;;;;;;;7.97;2.35;;;7.30;99.90;;;;;;5053700;28;20510;-78
2020/12/14 03:23:34;;;;;;;3.63;1.58;;;7.30;99.90;;;;;;5053545;28;20060;-79
2020/12/14 03:26:00;;;;;;;6.72;2.20;;;7.20;99.90;;;;;;5053686;28;20441;-79
2020/12/14 03:28:26;;;;;;;5.80;1.88;;;7.20;99.90;;;;;;5053411;28;20479;-78
2020/12/14 03:30:52;;;;;;;4.35;2.22;;;7.20;99.90;;;;;;5071685;28;20025;-79
2020/12/14 03:33:18;;;;;;;6.38;2.40;;;7.20;99.90;;;;;;5071258;28;20025;-79
2020/12/14 03:35:45;;;;;;;7.20;2.20;;;7.10;99.90;;;;;;5062465;28;20024;-78
2020/12/14 03:38:11;;;;;;;7.72;2.25;;;7.20;99.90;;;;;;5053732;28;20021;-78
2020/12/14 03:40:37;;;;;;;6.13;2.53;;;7.20;99.90;;;;;;5053665;28;20035;-79
2020/12/14 03:43:02;;;;;;;9.45;2.13;;;7.20;99.90;;;;;;5053428;28;20043;-78
2020/12/14 03:45:28;;;;;;;5.22;2.00;;;7.20;99.90;;;;;;5071306;28;20024;-79
2020/12/14 03:47:53;;;;;;;5.10;2.45;;;7.20;99.90;;;;;;5056209;28;20028;-79
2020/12/14 03:50:19;;;;;;;8.68;1.98;;;7.30;99.90;;;;;;5075020;28;20044;-79
2020/12/14 03:52:44;;;;;;;5.13;2.08;;;7.30;99.90;;;;;;5074873;28;20484;-78
2020/12/14 03:55:10;;;;;;;6.05;2.30;;;7.40;99.90;;;;;;5074824;28;20067;-78
2020/12/14 03:57:35;;;;;;;5.00;1.50;;;7.40;99.90;;;;;;5074767;28;20063;-78
2020/12/14 04:00:02;;;;;;;4.18;1.88;;;7.40;99.90;;;;;;5057119;28;20020;-79
2020/12/14 04:02:28;;;;;;;4.72;1.67;;;7.40;99.90;;;;;;5056702;28;20480;-78
2020/12/14 04:04:54;;;;;;;6.65;2.00;;;7.40;99.90;;;;;;5074807;28;20032;-79
2020/12/14 04:07:19;;;;;;;8.25;1.65;;;7.40;99.90;;;;;;5077605;28;20057;-78
2020/12/14 04:09:45;;;;;;;5.43;2.00;;;7.40;99.90;;;;;;5086508;28;20029;-78
2020/12/14 04:12:10;;;;;;;5.88;1.70;;;7.40;99.90;;;;;;5056687;28;20065;-79
2020/12/14 04:14:36;;;;;;;5.10;2.10;;;7.40;99.90;;;;;;5059439;28;20020;-79
2020/12/14 04:17:02;;;;;;;7.70;2.25;;;7.40;99.90;;;;;;5056722;28;20013;-78
2020/12/14 04:19:27;;;;;;;5.20;2.00;;;7.40;99.90;;;;;;5074418;28;20021;-79
2020/12/14 04:21:53;;;;;;;6.32;1.98;;;7.40;99.90;;;;;;5056760;28;20476;-78
2020/12/14 04:24:19;;;;;;;6.25;2.20;;;7.40;99.90;;;;;;5074494;28;20033;-78
2020/12/14 04:26:50;;;;;;;4.10;1.95;;;7.40;99.90;;;;;;5056250;28;20024;-78
2020/12/14 04:29:15;;;;;;;3.20;1.58;;;7.40;99.90;;;;;;5074427;28;20020;-78
2020/12/14 04:31:41;;;;;;;5.90;1.80;;;7.40;99.90;;;;;;5056457;28;20510;-78
2020/12/14 04:34:06;;;;;;;5.15;2.10;;;7.40;99.90;;;;;;5056168;28;20020;-78
2020/12/14 04:36:32;;;;;;;4.65;1.83;;;7.40;99.90;;;;;;5076415;28;20531;-79
2020/12/14 04:38:57;;;;;;;10.20;2.30;;;7.40;99.90;;;;;;5056219;28;20025;-80
2020/12/14 04:41:23;;;;;;;6.20;1.80;;;7.30;99.90;;;;;;5056252;28;20012;-80
2020/12/14 04:43:52;;;;;;;3.67;1.95;;;7.30;99.90;;;;;;5074020;28;20480;-80
2020/12/14 04:46:21;;;;;;;5.47;2.20;;;7.30;99.90;;;;;;5056081;28;20029;-79
2020/12/14 04:48:50;;;;;;;3.50;2.03;;;7.30;99.90;;;;;;5055770;28;20507;-80
2020/12/14 04:51:15;;;;;;;5.57;2.10;;;7.30;99.90;;;;;;5076756;28;20025;-80
2020/12/14 04:53:44;;;;;;;6.70;2.00;;;7.30;99.90;;;;;;5055588;28;20074;-79
2020/12/14 04:56:14;;;;;;;4.82;1.98;;;7.30;99.90;;;;;;5073908;28;20073;-80
2020/12/14 04:58:40;;;;;;;4.35;2.00;;;7.40;99.90;;;;;;5073604;28;20021;-79
2020/12/14 05:01:05;;;;;;;4.20;2.20;;;7.40;99.90;;;;;;5073593;28;20081;-79
2020/12/14 05:03:31;;;;;;;5.53;2.15;;;7.50;99.90;;;;;;5073626;28;20105;-79
2020/12/14 05:05:56;;;;;;;3.53;1.88;;;7.50;99.90;;;;;;5055684;28;20491;-79
2020/12/14 05:08:29;;;;;;;5.88;2.50;;;7.50;99.90;;;;;;5055457;28;20031;-79
2020/12/14 05:10:56;;;;;;;5.03;1.98;;;7.50;99.90;;;;;;5055503;28;20032;-79
2020/12/14 05:13:26;;;;;;;4.85;2.42;;;7.40;99.90;;;;;;5055602;28;20033;-79
2020/12/14 05:15:52;;;;;;;2.95;1.90;;;7.50;99.90;;;;;;5055513;28;20017;-79
2020/12/14 05:18:22;;;;;;;4.45;2.38;;;7.40;99.90;;;;;;5073389;28;20017;-79
2020/12/14 05:20:58;;;;;;;3.55;2.42;;;7.50;99.90;;;;;;5055156;28;20029;-79
2020/12/14 05:23:23;;;;;;;4.13;2.50;;;7.50;99.90;;;;;;5073207;28;20020;-79
2020/12/14 05:25:49;;;;;;;4.13;2.55;;;7.50;99.90;;;;;;5055294;28;20514;-79
2020/12/14 05:28:19;;;;;;;3.80;2.58;;;7.50;99.90;;;;;;5055185;28;20028;-79
2020/12/14 05:30:45;;;;;;;4.18;2.30;;;7.50;99.90;;;;;;5055103;28;20059;-79
2020/12/14 05:33:14;;;;;;;5.95;2.70;;;7.50;99.90;;;;;;5055076;28;20024;-78
2020/12/14 05:35:42;;;;;;;4.22;2.90;;;7.50;99.90;;;;;;5075018;28;20020;-78
2020/12/14 05:38:29;;;;;;;3.60;2.70;;;7.60;99.90;;;;;;5067456;28;20479;-79
2020/12/14 05:41:02;;;;;;;4.05;2.63;;;7.60;99.90;;;;;;5054980;28;20537;-79
2020/12/14 05:43:30;;;;;;;8.10;3.75;;;7.60;99.90;;;;;;5072773;28;20043;-79
2020/12/14 05:45:56;;;;;;;5.97;2.60;;;7.60;99.90;;;;;;5054805;28;20499;-79
2020/12/14 05:48:24;;;;;;;9.15;3.08;;;7.60;99.90;;;;;;5054539;28;20056;-79
2020/12/14 05:50:51;;;;;;;6.80;3.88;;;7.60;99.90;;;;;;5086537;28;20096;-79
2020/12/14 05:53:20;;;;;;;4.97;3.10;;;7.60;99.90;;;;;;5055012;28;20051;-79
2020/12/14 05:55:47;;;;;;;5.43;3.07;;;7.60;99.90;;;;;;5072521;28;20023;-78
2020/12/14 05:58:16;;;;;;;6.45;2.90;;;7.60;99.90;;;;;;5072587;28;20013;-79
2020/12/14 06:00:44;;;;;;;5.45;3.10;;;7.60;99.90;;;;;;5057377;28;20050;-79
2020/12/14 06:03:10;;;;;;;5.32;3.65;;;7.70;99.90;;;;;;5082933;28;20119;-79
2020/12/14 06:05:36;;;;;;;5.22;3.42;;;7.70;99.90;;;;;;5054322;28;20051;-79
2020/12/14 06:08:27;;;;;;;6.15;3.20;;;7.70;99.90;;;;;;5054614;28;20056;-79
2020/12/14 06:10:58;;;;;;;4.43;3.33;;;7.80;99.90;;;;;;5011560;28;20067;-80
2020/12/14 06:13:30;;;;;;;6.93;3.75;;;7.70;99.90;;;;;;5067050;28;20033;-80
2020/12/14 06:16:00;;;;;;;6.20;3.92;;;7.70;99.90;;;;;;5072305;28;20495;-80
2020/12/14 06:18:31;;;;;;;7.45;4.68;;;7.70;99.90;;;;;;5054329;28;20020;-80
2020/12/14 06:20:57;;;;;;;5.88;4.20;;;7.70;99.90;;;;;;5054226;28;20093;-79
2020/12/14 06:23:23;;;;;;;7.60;3.90;;;7.70;99.90;;;;;;5073547;28;20472;-79
2020/12/14 06:25:49;;;;;;;5.57;4.50;;;7.70;99.90;;;;;;5054226;28;20024;-79
2020/12/14 06:28:29;;;;;;;7.30;5.25;;;7.70;99.90;;;;;;5054264;28;20085;-80
2020/12/14 06:30:55;;;;;;;;;;;7.70;99.90;;;;;;5054551;28;20131;-79
2020/12/14 06:33:35;;;;;;;7.40;4.28;;;7.70;99.90;;;;;;5054383;28;20050;-79
2020/12/14 06:36:24;;;;;;;8.20;4.15;;;7.80;99.90;;;;;;5073534;28;20024;-80
2020/12/14 06:38:52;;;;;;;5.20;4.40;;;7.80;99.90;;;;;;5054175;28;20043;-79
2020/12/14 06:41:22;;;;;;;6.85;4.80;;;7.80;99.90;;;;;;5053495;28;20039;-79
2020/12/14 06:43:50;;;;;;;6.90;4.88;;;7.80;99.90;;;;;;5072453;28;20020;-79
2020/12/14 06:46:35;;;;;;;8.43;5.38;;;7.80;99.90;;;;;;5072106;28;20033;-80
2020/12/14 06:49:02;;;;;;;8.63;5.18;;;7.80;99.90;;;;;;5072376;28;20120;-79
2020/12/14 06:51:53;;;;;;;6.97;5.22;;;7.80;99.90;;;;;;5077781;28;20028;-79
2020/12/14 06:54:41;;;;;;;7.63;5.05;;;7.80;99.90;;;;;;5088059;28;20030;-79
2020/12/14 06:57:08;;;;;;;8.80;5.63;;;7.90;99.90;;;;;;5074757;28;20020;-80
2020/12/14 06:59:35;;;;;;;6.80;5.35;;;7.80;99.90;;;;;;5074774;28;20077;-80
2020/12/14 07:02:11;;;;;;;9.55;5.97;;;7.90;99.90;;;;;;5092755;28;20483;-80
2020/12/14 07:04:39;;;;;;;8.15;5.70;;;7.90;99.90;;;;;;5074643;28;20114;-79
2020/12/14 07:07:05;;;;;;;7.53;5.43;;;7.90;99.90;;;;;;5074398;28;20070;-80
2020/12/14 07:09:32;;;;;;;10.85;5.70;;;7.90;99.90;;;;;;5074471;28;20020;-79
2020/12/14 07:12:17;;;;;;;9.20;5.28;;;7.90;99.90;;;;;;5074535;28;20078;-79
2020/12/14 07:14:54;;;;;;;9.00;5.90;;;8.00;99.90;;;;;;5092619;28;20035;-79
2020/12/14 07:17:24;;;;;;;9.13;6.20;;;7.90;99.90;;;;;;5092637;28;20046;-79
2020/12/14 07:19:54;;;;;;;9.35;6.65;;;8.00;99.90;;;;;;5072371;28;20027;-78
2020/12/14 07:22:21;;;;;;;9.93;7.28;;;8.00;99.90;;;;;;5064503;28;20052;-78
2020/12/14 07:24:57;;;;;;;8.45;6.32;;;8.00;99.90;;;;;;5076281;28;20041;-78
2020/12/14 07:27:23;;;;;;;10.95;6.82;;;8.10;99.90;;;;;;5058290;28;20457;-78
2020/12/14 07:29:48;;;;;;;10.43;7.20;;;8.10;99.90;;;;;;5058211;28;20052;-77
2020/12/14 07:32:14;;;;;;;9.75;7.00;;;8.10;99.90;;;;;;5076141;28;20090;-78
2020/12/14 07:34:50;;;;;;;11.20;7.38;;;8.20;99.90;;;;;;5060338;28;20040;-78
2020/12/14 07:37:23;;;;;;;9.35;6.95;;;8.20;99.90;;;;;;5096193;28;20045;-78
2020/12/14 07:39:49;;;;;;;8.98;7.13;;;8.20;99.90;;;;;;5095802;28;20035;-78
2020/12/14 07:42:26;;;;;;;11.20;7.80;;;8.20;99.90;;;;;;5066331;28;20025;-78
2020/12/14 07:45:21;;;;;;;10.77;7.15;;;8.30;99.90;;;;;;5064191;28;20028;-78
2020/12/14 07:47:50;;;;;;;11.98;8.18;;;8.40;99.90;;;;;;5075620;28;20061;-78
2020/12/14 07:50:19;;;;;;;13.05;8.50;;;8.40;99.90;;;;;;5075848;28;20071;-78
2020/12/14 07:52:53;;;;;;;14.35;8.90;;;8.50;99.90;;;;;;5075549;28;20101;-77
2020/12/14 07:55:19;;;;;;;11.40;8.45;;;8.50;99.90;;;;;;5086708;28;20204;-78
2020/12/14 07:57:46;;;;;;;11.68;8.48;;;8.60;99.90;;;;;;5084722;28;20024;-78
2020/12/14 08:00:14;;;;;;;11.20;8.57;;;8.60;99.90;;;;;;5064549;28;20120;-77
2020/12/14 08:02:44;;;;;;;9.63;8.35;;;8.70;99.90;;;;;;5073134;28;20027;-77
2020/12/14 08:05:12;;;;;;;10.25;8.68;;;8.70;99.90;;;;;;5076481;28;20051;-77
2020/12/14 08:07:44;;;;;;;10.85;8.48;;;8.70;99.90;;;;;;5095264;28;20031;-78
2020/12/14 08:10:10;;;;;;;10.98;8.40;;;8.80;99.90;;;;;;5095661;28;20066;-77
2020/12/14 08:12:38;;;;;;;13.15;9.05;;;8.80;99.90;;;;;;5088452;28;20369;-77
2020/12/14 08:15:07;;;;;;;12.60;8.95;;;8.80;99.90;;;;;;5091033;28;20035;-78
2020/12/14 08:17:36;;;;;;;9.82;8.45;;;8.80;99.90;;;;;;5077195;28;20051;-78
2020/12/14 08:20:04;;;;;;;12.13;9.20;;;8.80;99.90;;;;;;5076892;28;20039;-78
2020/12/14 08:22:34;;;;;;;10.02;7.70;;;8.80;99.90;;;;;;5076857;28;20020;-78
2020/12/14 08:25:00;;;;;;;;;;;8.90;99.90;;;;;;5095703;28;20028;-77
2020/12/14 08:27:57;;;;;;;10.57;8.65;;;8.80;99.90;;;;;;5077132;28;19908;-78
2020/12/14 08:30:25;;;;;;;10.05;8.70;;;8.90;99.90;;;;;;5077037;28;20103;-78
2020/12/14 08:33:09;;;;;;;10.20;8.73;;;8.90;99.90;;;;;;5073455;28;20124;-78
2020/12/14 08:35:36;;;;;;;10.95;8.23;;;8.90;99.90;;;;;;5081780;28;20016;-78
2020/12/14 08:38:11;;;;;;;11.18;7.95;;;8.90;99.90;;;;;;5082772;28;20024;-78
2020/12/14 08:40:37;;;;;;;9.60;7.40;;;9.00;99.90;;;;;;5067625;28;20027;-78
2020/12/14 08:43:10;;;;;;;10.63;7.32;;;9.00;99.90;;;;;;5066857;28;20044;-78
2020/12/14 08:45:39;;;;;;;10.25;7.15;;;9.00;99.90;;;;;;5063990;28;20061;-78
2020/12/14 08:48:05;;;;;;;8.65;7.30;;;9.00;99.90;;;;;;5062428;28;20047;-78
2020/12/14 08:50:31;;;;;;;9.85;6.57;;;9.10;99.90;;;;;;5094148;28;20063;-78
2020/12/14 08:53:01;;;;;;;10.38;6.95;;;9.10;99.90;;;;;;5094999;28;20091;-78
2020/12/14 08:55:39;;;;;;;9.13;7.03;;;9.20;99.90;;;;;;5094649;28;20017;-78
2020/12/14 08:58:08;;;;;;;8.82;6.32;;;9.20;99.90;;;;;;5094670;28;20095;-78
2020/12/14 09:00:33;;;;;;;8.50;6.60;;;9.20;99.90;;;;;;5094758;28;20085;-78
2020/12/14 09:03:01;;;;;;;7.78;6.97;;;9.20;99.90;;;;;;5085072;28;20025;-78
2020/12/14 09:05:32;;;;;;;8.18;6.70;;;9.30;99.90;;;;;;5087857;28;20361;-78
2020/12/14 09:08:15;;;;;;;8.45;6.63;;;9.30;99.90;;;;;;5093108;28;20140;-78
2020/12/14 09:10:41;;;;;;;7.88;6.55;;;9.40;99.90;;;;;;5094243;28;20115;-78
2020/12/14 09:13:07;;;;;;;9.15;6.65;;;9.40;99.90;;;;;;5093097;28;20027;-78
2020/12/14 09:15:34;;;;;;;7.90;7.03;;;9.40;99.90;;;;;;5094045;28;20479;-77
2020/12/14 09:18:04;;;;;;;10.57;6.03;;;9.40;99.90;;;;;;5094269;28;20035;-78
2020/12/14 09:20:30;;;;;;;6.55;5.70;;;9.40;99.90;;;;;;5094316;28;20111;-77
2020/12/14 09:22:56;;;;;;;7.97;6.18;;;9.50;99.90;;;;;;5094300;28;20024;-78
2020/12/14 09:25:22;;;;;;;9.90;6.65;;;9.50;99.90;;;;;;5094467;28;20012;-78
2020/12/14 09:27:47;;;;;;;6.82;6.03;;;9.50;99.90;;;;;;5067734;28;20365;-78
2020/12/14 09:30:13;;;;;;;7.63;6.00;;;9.50;99.90;;;;;;5077892;28;20025;-78
2020/12/14 09:32:38;;;;;;;8.02;6.22;;;9.50;99.90;;;;;;5060985;28;20028;-78
2020/12/14 09:35:05;;;;;;;7.18;5.90;;;9.60;99.90;;;;;;5063308;28;20028;-77
2020/12/14 09:37:31;;;;;;;7.25;6.47;;;9.60;99.90;;;;;;5056610;28;20296;-78
2020/12/14 09:39:57;;;;;;;9.50;6.20;;;9.70;99.90;;;;;;5067335;28;20479;-79
2020/12/14 09:42:23;;;;;;;6.82;6.10;;;9.70;99.90;;;;;;5064342;28;20484;-78
2020/12/14 09:44:48;;;;;;;8.50;6.90;;;9.70;99.90;;;;;;5089873;28;20026;-78
2020/12/14 09:47:14;;;;;;;8.18;5.97;;;9.80;99.90;;;;;;5072392;28;20031;-78
2020/12/14 09:49:40;;;;;;;7.55;6.25;;;9.80;99.90;;;;;;5067809;28;20059;-78
2020/12/14 09:52:05;;;;;;;7.30;6.35;;;9.80;99.90;;;;;;5081171;28;20530;-77
2020/12/14 09:54:31;;;;;;;8.55;6.45;;;9.80;99.90;;;;;;5088747;28;20419;-79
2020/12/14 09:56:56;;;;;;;6.30;5.70;;;9.80;99.90;;;;;;5072795;28;20040;-79
2020/12/14 09:59:22;;;;;;;6.95;6.25;;;9.80;99.90;;;;;;5073222;28;20495;-80
2020/12/14 10:01:47;;;;;;;6.85;6.15;;;9.90;99.90;;;;;;5069579;28;20032;-80
2020/12/14 10:04:13;;;;;;;9.57;6.30;;;9.90;99.90;;;;;;5089259;28;20034;-79
2020/12/14 10:06:38;;;;;;;6.57;5.95;;;10.00;99.90;;;;;;5091900;28;20543;-79
2020/12/14 10:09:04;;;;;;;8.40;6.10;;;10.00;99.90;;;;;;5093014;28;20028;-78
2020/12/14 10:11:31;;;;;;;6.88;5.80;;;10.10;99.90;;;;;;5075007;28;20024;-77
2020/12/14 10:14:06;;;;;;;7.13;6.25;;;10.10;99.90;;;;;;5074949;28;20024;-77
2020/12/14 10:16:31;;;;;;;6.80;5.28;;;10.10;99.90;;;;;;5074942;28;20563;-77
2020/12/14 10:18:57;;;;;;;5.65;5.10;;;10.10;99.90;;;;;;5093013;28;20112;-77
2020/12/14 10:21:22;;;;;;;5.85;5.13;;;10.20;99.90;;;;;;5074705;28;20115;-77
2020/12/14 10:23:48;;;;;;;6.20;5.60;;;10.20;99.90;;;;;;5074154;28;20498;-77
2020/12/14 10:26:14;;;;;;;5.32;4.80;;;10.20;99.90;;;;;;5074446;28;20039;-77
2020/12/14 10:28:41;;;;;;;5.75;5.15;;;10.30;99.90;;;;;;5074252;28;20024;-77
2020/12/14 10:31:09;;;;;;;5.95;5.35;;;10.30;99.90;;;;;;5074244;28;20057;-77
2020/12/14 10:33:36;;;;;;;5.22;4.68;;;10.30;99.90;;;;;;5074897;28;20027;-77
2020/12/14 10:36:10;;;;;;;6.45;4.93;;;10.30;99.90;;;;;;5074716;28;20028;-77
2020/12/14 10:38:36;;;;;;;7.82;5.65;;;10.40;99.90;;;;;;5092935;28;20038;-77
2020/12/14 10:41:02;;;;;;;5.88;5.28;;;10.40;99.90;;;;;;5074816;28;20471;-77
2020/12/14 10:43:28;;;;;;;6.18;5.20;;;10.40;99.90;;;;;;5074772;28;20028;-77
2020/12/14 10:45:54;;;;;;;5.93;5.40;;;10.40;99.90;;;;;;5092728;28;20020;-77
2020/12/14 10:48:19;;;;;;;5.95;5.32;;;10.40;99.90;;;;;;5074674;28;20044;-77
2020/12/14 10:50:45;;;;;;;6.22;5.40;;;10.40;99.90;;;;;;5071487;28;20024;-78
2020/12/14 10:53:10;;;;;;;7.03;5.88;;;10.40;99.90;;;;;;5092813;28;20031;-77
2020/12/14 10:55:36;;;;;;;6.03;5.30;;;10.40;99.90;;;;;;5094515;28;20032;-77
2020/12/14 10:58:01;;;;;;;6.28;5.68;;;10.40;99.90;;;;;;5098931;28;20023;-77
2020/12/14 11:00:27;;;;;;;8.35;5.47;;;10.40;99.90;;;;;;5081208;28;20387;-77
2020/12/14 11:02:56;;;;;;;6.80;6.20;;;10.50;99.90;;;;;;5081041;28;20016;-77
2020/12/14 11:05:22;;;;;;;6.53;5.90;;;10.50;99.90;;;;;;5099613;28;20016;-77
2020/12/14 11:07:48;;;;;;;7.15;6.45;;;10.40;99.90;;;;;;5075711;28;20452;-77
2020/12/14 11:10:14;;;;;;;7.78;6.97;;;10.40;99.90;;;;;;5088660;28;20025;-77
2020/12/14 11:12:39;;;;;;;7.35;6.72;;;10.50;99.90;;;;;;5081491;28;20110;-77
2020/12/14 11:15:09;;;;;;;9.05;6.70;;;10.50;99.90;;;;;;5078990;28;20055;-77
2020/12/14 11:17:36;;;;;;;7.53;6.82;;;10.40;99.90;;;;;;5062607;28;20029;-77
2020/12/14 11:20:08;;;;;;;7.13;6.43;;;10.50;99.90;;;;;;5089700;28;20561;-77
2020/12/14 11:22:34;;;;;;;7.63;6.93;;;10.40;99.90;;;;;;5070530;28;20499;-77
2020/12/14 11:25:00;;;;;;;7.88;7.07;;;10.50;99.90;;;;;;5070265;28;20020;-77
2020/12/14 11:27:26;;;;;;;8.65;7.25;;;10.50;99.90;;;;;;5087407;28;20429;-77
2020/12/14 11:29:51;;;;;;;7.57;6.53;;;10.50;99.90;;;;;;5088937;28;20021;-77
2020/12/14 11:32:17;;;;;;;8.05;6.53;;;10.50;99.90;;;;;;5099500;28;20031;-77
2020/12/14 11:34:42;;;;;;;8.18;6.90;;;10.50;99.90;;;;;;5078166;28;20110;-77
2020/12/14 11:37:08;;;;;;;7.32;6.63;;;10.50;99.90;;;;;;5061148;28;20024;-76
2020/12/14 11:39:34;;;;;;;8.07;7.10;;;10.50;99.90;;;;;;5078886;28;20480;-77
2020/12/14 11:41:59;;;;;;;7.10;6.40;;;10.50;99.90;;;;;;5078703;28;20503;-77
2020/12/14 11:44:25;;;;;;;7.18;6.57;;;10.50;99.90;;;;;;5083446;28;20021;-77
2020/12/14 11:46:51;;;;;;;8.18;7.38;;;10.50;99.90;;;;;;5067708;28;20082;-77
2020/12/14 11:49:19;;;;;;;7.13;6.40;;;10.50;99.90;;;;;;5077038;28;20123;-77
2020/12/14 11:51:44;;;;;;;8.80;7.38;;;10.50;99.90;;;;;;5058999;28;20547;-77
2020/12/14 11:54:10;;;;;;;7.55;6.50;;;10.50;99.90;;;;;;5058880;28;20031;-77
2020/12/14 11:56:36;;;;;;;8.68;7.40;;;10.50;99.90;;;;;;5058944;28;20127;-77
2020/12/14 11:59:01;;;;;;;7.90;7.07;;;10.50;99.90;;;;;;5081415;28;20031;-77
2020/12/14 12:01:27;;;;;;;8.40;6.60;;;10.60;99.90;;;;;;5085375;28;20035;-77
2020/12/14 12:03:52;;;;;;;6.35;5.85;;;10.50;99.90;;;;;;5059960;28;20029;-77
2020/12/14 12:06:18;;;;;;;7.70;6.20;;;10.60;99.90;;;;;;5060291;28;20027;-77
2020/12/14 12:08:44;;;;;;;7.45;6.63;;;10.60;99.90;;;;;;5073694;28;20074;-76
2020/12/14 12:11:13;;;;;;;6.88;5.55;;;10.60;99.90;;;;;;5056381;28;20070;-77
2020/12/14 12:13:39;;;;;;;6.15;5.55;;;10.60;99.90;;;;;;5074037;28;20025;-76
2020/12/14 12:16:06;;;;;;;5.15;4.68;;;10.60;99.90;;;;;;5056265;28;20028;-76
2020/12/14 12:18:32;;;;;;;6.18;4.30;;;10.70;99.90;;;;;;5056255;28;20021;-77
2020/12/14 12:20:57;;;;;;;5.05;4.55;;;10.70;99.90;;;;;;5076178;28;20031;-77
2020/12/14 12:23:23;;;;;;;4.25;3.78;;;10.70;99.90;;;;;;5057517;28;20025;-76
2020/12/14 12:25:48;;;;;;;5.35;3.83;;;10.80;99.90;;;;;;5055738;28;20108;-77
2020/12/14 12:28:14;;;;;;;5.70;4.35;;;10.80;99.90;;;;;;5059442;28;20382;-77
2020/12/14 12:30:40;;;;;;;3.85;3.40;;;10.90;99.90;;;;;;5080974;28;20017;-77
2020/12/14 12:33:05;;;;;;;5.97;3.33;;;11.00;99.90;;;;;;5074312;28;20025;-77
2020/12/14 12:35:31;;;;;;;3.72;2.83;;;11.10;99.90;;;;;;5073839;28;20082;-77
2020/12/14 12:37:56;;;;;;;3.95;2.60;;;11.20;99.90;;;;;;5055917;28;20094;-77
2020/12/14 12:40:22;;;;;;;6.30;3.22;;;11.30;99.90;;;;;;5060172;28;20063;-77
2020/12/14 12:42:48;;;;;;;3.10;2.13;;;11.50;99.90;;;;;;5073479;28;20099;-77
2020/12/14 12:45:13;;;;;;;5.32;2.58;;;11.50;99.90;;;;;;5055745;28;20103;-77
2020/12/14 12:47:39;;;;;;;5.18;2.60;;;11.40;99.90;;;;;;5073950;28;20017;-77
2020/12/14 12:50:05;;;;;;;3.75;2.63;;;11.30;99.90;;;;;;5075981;28;20048;-76
2020/12/14 12:52:30;;;;;;;4.95;2.60;;;11.30;99.90;;;;;;5082866;28;20392;-77
2020/12/14 12:54:56;;;;;;;3.85;2.75;;;11.30;99.90;;;;;;5073431;28;20470;-77
2020/12/14 12:57:21;;;;;;;3.38;2.65;;;11.20;99.90;;;;;;5061544;28;20024;-77